createdAt,value
2023-04-16T00:01:41.305Z,14.50
2023-04-16T00:04:09.403Z,13.65
2023-04-16T00:06:37.220Z,14.90
2023-04-16T00:09:05.014Z,13.65
2023-04-16T00:11:32.726Z,13.82
2023-04-16T00:14:00.454Z,13.63
2023-04-16T00:16:28.823Z,15.10
2023-04-16T00:18:57.869Z,16.13
2023-04-16T00:21:26.445Z,13.07
2023-04-16T00:23:54.210Z,13.57
2023-04-16T00:26:21.935Z,12.02
2023-04-16T00:28:49.637Z,13.18
2023-04-16T00:31:17.390Z,14.82
2023-04-16T00:33:45.190Z,13.93
2023-04-16T00:36:14.247Z,13.13
2023-04-16T00:38:41.869Z,12.80
2023-04-16T00:41:09.558Z,15.68
2023-04-16T00:43:37.218Z,13.77
2023-04-16T00:46:06.665Z,12.90
2023-04-16T00:48:34.796Z,15.20
2023-04-16T00:51:02.710Z,13.43
2023-04-16T00:53:32.022Z,13.85
2023-04-16T00:56:00.144Z,14.43
2023-04-16T00:58:27.955Z,14.57
2023-04-16T01:00:56.452Z,14.60
2023-04-16T01:03:24.498Z,15.10
2023-04-16T01:05:52.516Z,13.13
2023-04-16T01:08:23.427Z,14.00
2023-04-16T01:10:52.480Z,13.48
2023-04-16T01:13:20.155Z,16.58
2023-04-16T01:15:47.886Z,13.52
2023-04-16T01:18:16.294Z,15.05
2023-04-16T01:20:45.471Z,13.80
2023-04-16T01:23:13.292Z,16.52
2023-04-16T01:25:41.066Z,14.15
2023-04-16T01:28:08.865Z,13.27
2023-04-16T01:30:36.530Z,14.85
2023-04-16T01:33:04.374Z,13.02
2023-04-16T01:35:32.070Z,12.93
2023-04-16T01:38:01.258Z,14.20
2023-04-16T01:40:28.985Z,14.40
2023-04-16T01:42:56.666Z,13.13
2023-04-16T01:45:24.432Z,16.45
2023-04-16T01:47:52.973Z,13.77
2023-04-16T01:50:21.231Z,13.13
2023-04-16T01:52:48.912Z,12.95
2023-04-16T01:55:17.991Z,14.02
2023-04-16T01:57:45.724Z,14.27
2023-04-16T02:00:13.566Z,14.05
2023-04-16T02:02:41.409Z,14.98
2023-04-16T02:05:09.530Z,16.10
2023-04-16T02:07:37.262Z,14.95
2023-04-16T02:10:05.403Z,14.35
2023-04-16T02:12:34.493Z,16.42
2023-04-16T02:15:02.208Z,16.23
2023-04-16T02:17:29.960Z,18.38
2023-04-16T02:19:57.630Z,15.30
2023-04-16T02:22:25.322Z,19.63
2023-04-16T02:24:53.106Z,16.25
2023-04-16T02:27:20.946Z,15.25
2023-04-16T02:29:49.975Z,16.40
2023-04-16T02:32:18.329Z,17.33
2023-04-16T02:34:46.046Z,20.48
2023-04-16T02:37:15.270Z,16.50
2023-04-16T02:39:43.894Z,16.73
2023-04-16T02:42:11.616Z,18.20
2023-04-16T02:44:39.282Z,16.48
2023-04-16T02:47:09.238Z,18.17
2023-04-16T02:49:36.894Z,17.92
2023-04-16T02:52:04.616Z,19.30
2023-04-16T02:54:32.286Z,17.42
2023-04-16T02:56:59.908Z,19.00
2023-04-16T02:59:27.521Z,18.35
2023-04-16T03:01:55.466Z,17.05
2023-04-16T03:04:24.652Z,18.48
2023-04-16T03:06:52.349Z,18.55
2023-04-16T03:09:20.087Z,17.80
2023-04-16T03:11:47.787Z,18.33
2023-04-16T03:14:15.489Z,18.17
2023-04-16T03:16:43.179Z,18.08
2023-04-16T03:19:11.053Z,18.15
2023-04-16T03:21:40.323Z,16.90
2023-04-16T03:24:07.945Z,20.13
2023-04-16T03:26:35.766Z,20.23
2023-04-16T03:29:03.575Z,17.67
2023-04-16T03:31:31.563Z,21.02
2023-04-16T03:33:59.288Z,20.60
2023-04-16T03:36:27.128Z,17.92
2023-04-16T03:38:56.187Z,20.23
2023-04-16T03:41:23.949Z,19.00
2023-04-16T03:43:51.677Z,16.38
2023-04-16T03:46:19.388Z,19.23
2023-04-16T03:48:47.123Z,19.33
2023-04-16T03:51:14.796Z,20.05
2023-04-16T03:53:42.533Z,20.30
2023-04-16T03:56:11.601Z,20.33
2023-04-16T03:58:39.230Z,20.52
2023-04-16T04:01:06.919Z,20.42
2023-04-16T04:03:34.822Z,19.90
2023-04-16T04:06:02.609Z,20.27
2023-04-16T04:08:30.358Z,15.93
2023-04-16T04:10:58.166Z,15.95
2023-04-16T04:13:27.187Z,15.75
2023-04-16T04:15:54.966Z,15.93
2023-04-16T04:18:22.703Z,15.93
2023-04-16T04:20:50.441Z,16.52
2023-04-16T04:23:18.107Z,14.43
2023-04-16T04:25:46.021Z,15.85
2023-04-16T04:28:13.832Z,15.63
2023-04-16T04:30:42.980Z,14.27
2023-04-16T04:33:10.689Z,15.20
2023-04-16T04:35:38.584Z,14.98
2023-04-16T04:38:06.659Z,13.73
2023-04-16T04:40:34.382Z,12.95
2023-04-16T04:43:02.024Z,14.55
2023-04-16T04:45:31.623Z,14.48
2023-04-16T04:48:01.128Z,13.45
2023-04-16T04:50:28.952Z,15.18
2023-04-16T04:52:56.590Z,15.30
2023-04-16T04:55:24.350Z,16.10
2023-04-16T04:57:52.132Z,13.93
2023-04-16T05:00:20.047Z,15.23
2023-04-16T05:02:48.344Z,12.02
2023-04-16T05:05:17.584Z,13.45
2023-04-16T05:07:46.996Z,13.20
2023-04-16T05:10:14.980Z,12.98
2023-04-16T05:12:42.722Z,13.55
2023-04-16T05:15:11.238Z,14.25
2023-04-16T05:17:39.207Z,13.38
2023-04-16T05:20:08.228Z,12.68
2023-04-16T05:22:37.380Z,11.43
2023-04-16T05:25:05.693Z,14.73
2023-04-16T05:27:33.354Z,15.02
2023-04-16T05:30:01.043Z,15.23
2023-04-16T05:32:28.709Z,13.32
2023-04-16T05:34:56.532Z,15.02
2023-04-16T05:37:24.228Z,13.07
2023-04-16T05:39:53.273Z,13.88
2023-04-16T05:42:21.039Z,12.95
2023-04-16T05:44:48.634Z,14.85
2023-04-16T05:47:17.560Z,12.40
2023-04-16T05:49:45.372Z,13.52
2023-04-16T05:52:13.103Z,13.15
2023-04-16T05:54:40.850Z,14.43
2023-04-16T05:57:10.772Z,15.95
2023-04-16T05:59:38.511Z,16.25
2023-04-16T06:02:06.376Z,13.32
2023-04-16T06:04:35.701Z,12.85
2023-04-16T06:07:03.360Z,14.95
2023-04-16T06:09:31.097Z,14.95
2023-04-16T06:11:59.055Z,15.45
2023-04-16T06:14:28.129Z,13.65
2023-04-16T06:16:56.357Z,14.10
2023-04-16T06:19:24.047Z,14.40
2023-04-16T06:21:52.325Z,12.38
2023-04-16T06:24:20.758Z,14.73
2023-04-16T06:26:48.514Z,14.57
2023-04-16T06:29:16.332Z,14.35
2023-04-16T06:31:45.478Z,11.02
2023-04-16T06:34:13.238Z,11.18
2023-04-16T06:36:41.125Z,12.23
2023-04-16T06:39:09.133Z,13.80
2023-04-16T06:41:37.272Z,14.30
2023-04-16T06:44:05.087Z,13.40
2023-04-16T06:46:32.911Z,15.23
2023-04-16T06:49:02.292Z,14.82
2023-04-16T06:51:30.379Z,14.57
2023-04-16T06:53:58.076Z,15.02
2023-04-16T06:56:25.818Z,16.30
2023-04-16T06:58:53.477Z,15.68
2023-04-16T07:01:21.226Z,16.23
2023-04-16T07:03:49.269Z,13.95
2023-04-16T07:06:18.598Z,14.85
2023-04-16T07:08:46.235Z,15.38
2023-04-16T07:11:13.978Z,16.15
2023-04-16T07:13:41.718Z,16.65
2023-04-16T07:16:09.712Z,16.23
2023-04-16T07:18:38.838Z,14.52
2023-04-16T07:21:06.612Z,19.58
2023-04-16T07:23:35.809Z,17.38
2023-04-16T07:26:03.927Z,14.95
2023-04-16T07:28:31.727Z,16.60
2023-04-16T07:30:59.599Z,16.10
2023-04-16T07:33:27.429Z,15.82
2023-04-16T07:35:55.154Z,14.30
2023-04-16T07:38:22.777Z,16.67
2023-04-16T07:40:51.914Z,16.00
2023-04-16T07:43:19.659Z,16.55
2023-04-16T07:45:47.319Z,14.95
2023-04-16T07:48:15.080Z,14.77
2023-04-16T07:50:43.629Z,15.95
2023-04-16T07:53:11.446Z,14.38
2023-04-16T07:55:39.148Z,15.05
2023-04-16T07:58:09.609Z,15.77
2023-04-16T08:00:37.385Z,12.90
2023-04-16T08:03:05.374Z,14.15
2023-04-16T08:05:33.164Z,14.18
2023-04-16T08:08:01.084Z,11.38
2023-04-16T08:10:28.926Z,11.55
2023-04-16T08:12:56.631Z,11.50
2023-04-16T08:15:25.660Z,10.10
2023-04-16T08:17:53.850Z,11.77
2023-04-16T08:20:21.648Z,13.25
2023-04-16T08:22:49.551Z,10.88
2023-04-16T08:25:17.462Z,11.93
2023-04-16T08:27:45.188Z,12.05
2023-04-16T08:30:13.293Z,11.32
2023-04-16T08:32:43.205Z,10.60
2023-04-16T08:35:11.082Z,11.23
2023-04-16T08:37:38.824Z,11.90
2023-04-16T08:40:07.848Z,12.45
2023-04-16T08:42:46.004Z,12.40
2023-04-16T08:45:16.457Z,11.13
2023-04-16T08:47:47.838Z,10.73
2023-04-16T08:50:16.834Z,12.50
2023-04-16T08:52:51.282Z,13.15
2023-04-16T08:55:22.840Z,13.90
2023-04-16T08:57:53.623Z,13.55
2023-04-16T09:00:22.232Z,12.90
2023-04-16T09:02:52.705Z,12.00
2023-04-16T09:05:25.393Z,14.68
2023-04-16T09:07:54.584Z,15.15
2023-04-16T09:10:22.918Z,14.20
2023-04-16T09:12:51.186Z,15.55
2023-04-16T09:15:21.575Z,13.75
2023-04-16T09:17:49.431Z,12.88
2023-04-16T09:20:18.793Z,15.52
2023-04-16T09:22:46.819Z,14.20
2023-04-16T09:25:14.923Z,17.02
2023-04-16T09:27:42.740Z,13.25
2023-04-16T09:30:26.256Z,14.60
2023-04-16T09:33:12.639Z,13.75
2023-04-16T09:35:48.198Z,13.88
2023-04-16T09:38:16.376Z,14.27
2023-04-16T09:40:44.393Z,14.82
2023-04-16T09:43:14.950Z,14.88
2023-04-16T09:45:50.775Z,15.52
2023-04-16T09:48:31.204Z,14.10
2023-04-16T09:51:01.401Z,15.20
2023-04-16T09:53:30.765Z,13.90
2023-04-16T09:55:58.906Z,14.57
2023-04-16T09:58:27.001Z,14.30
2023-04-16T10:00:57.320Z,16.60
2023-04-16T10:03:31.922Z,14.40
2023-04-16T10:06:03.248Z,14.55
2023-04-16T10:08:31.127Z,16.52
2023-04-16T10:10:59.173Z,16.25
2023-04-16T10:13:27.900Z,13.20
2023-04-16T10:15:57.683Z,14.00
2023-04-16T10:18:25.605Z,15.93
2023-04-16T10:20:53.998Z,13.73
2023-04-16T10:23:23.400Z,13.23
2023-04-16T10:25:51.570Z,16.38
2023-04-16T10:28:19.956Z,13.98
2023-04-16T10:30:53.672Z,14.00
2023-04-16T10:33:22.840Z,16.75
2023-04-16T10:36:01.379Z,13.65
2023-04-16T10:38:36.277Z,13.23
2023-04-16T10:41:05.488Z,14.50
2023-04-16T10:43:39.474Z,15.68
2023-04-16T10:46:21.405Z,14.70
2023-04-16T10:48:50.906Z,13.07
2023-04-16T10:51:27.797Z,19.25
2023-04-16T10:53:57.764Z,14.57
2023-04-16T10:56:26.221Z,17.23
2023-04-16T10:58:55.994Z,17.67
2023-04-16T11:01:32.596Z,15.20
2023-04-16T11:04:02.893Z,17.05
2023-04-16T11:06:31.943Z,20.73
2023-04-16T11:09:04.000Z,18.73
2023-04-16T11:11:39.480Z,20.23
2023-04-16T11:14:10.446Z,18.17
2023-04-16T11:16:42.283Z,18.42
2023-04-16T11:19:17.445Z,18.60
2023-04-16T11:21:46.177Z,18.88
2023-04-16T11:24:15.426Z,22.50
2023-04-16T11:26:43.159Z,21.42
2023-04-16T11:29:15.538Z,22.20
2023-04-16T11:31:43.355Z,20.02
2023-04-16T11:34:11.427Z,20.02
2023-04-16T11:36:44.910Z,18.35
2023-04-16T11:39:12.800Z,22.65
2023-04-16T11:41:45.144Z,19.40
2023-04-16T11:44:23.546Z,19.92
2023-04-16T11:46:51.868Z,20.80
2023-04-16T11:49:28.326Z,22.50
2023-04-16T11:51:56.524Z,21.45
2023-04-16T11:54:34.674Z,19.05
2023-04-16T11:57:06.890Z,18.85
2023-04-16T11:59:34.623Z,19.17
2023-04-16T12:02:02.324Z,18.13
2023-04-16T12:04:30.340Z,20.70
2023-04-16T12:07:11.800Z,19.77
2023-04-16T12:09:41.558Z,19.15
2023-04-16T12:12:30.881Z,21.95
2023-04-16T12:15:03.194Z,20.17
2023-04-16T12:17:31.397Z,22.98
2023-04-16T12:20:01.178Z,19.85
2023-04-16T12:22:30.283Z,23.42
2023-04-16T12:25:00.384Z,21.50
2023-04-16T12:27:42.325Z,19.83
2023-04-16T12:30:13.212Z,20.73
2023-04-16T12:32:45.605Z,20.10
2023-04-16T12:35:14.148Z,21.90
2023-04-16T12:37:43.103Z,20.17
2023-04-16T12:40:12.174Z,19.58
2023-04-16T12:42:41.354Z,21.40
2023-04-16T12:45:09.443Z,19.70
2023-04-16T12:47:37.222Z,20.77
2023-04-16T12:50:05.889Z,21.95
2023-04-16T12:52:33.763Z,20.35
2023-04-16T12:55:04.547Z,22.52
2023-04-16T12:57:36.129Z,21.63
2023-04-16T13:00:06.374Z,24.65
2023-04-16T13:02:34.328Z,23.10
2023-04-16T13:05:02.181Z,22.17
2023-04-16T13:07:32.171Z,22.05
2023-04-16T13:10:01.053Z,21.33
2023-04-16T13:12:29.064Z,25.42
2023-04-16T13:14:56.835Z,20.67
2023-04-16T13:17:26.255Z,23.48
2023-04-16T13:19:54.569Z,28.23
2023-04-16T13:22:22.400Z,24.95
2023-04-16T13:24:50.160Z,25.90
2023-04-16T13:27:17.980Z,28.35
2023-04-16T13:29:45.771Z,22.52
2023-04-16T13:32:14.066Z,24.98
2023-04-16T13:34:43.618Z,22.48
2023-04-16T13:37:11.321Z,25.85
2023-04-16T13:39:39.072Z,25.15
2023-04-16T13:42:06.810Z,21.95
2023-04-16T13:44:34.622Z,23.88
2023-04-16T13:47:03.147Z,27.63
2023-04-16T13:49:32.187Z,28.05
2023-04-16T13:52:02.283Z,22.38
2023-04-16T13:54:30.211Z,21.58
2023-04-16T13:56:58.132Z,26.48
2023-04-16T13:59:26.218Z,26.73
2023-04-16T14:01:55.078Z,26.30
2023-04-16T14:04:22.890Z,23.02
2023-04-16T14:06:50.946Z,24.55
2023-04-16T14:09:19.977Z,27.30
2023-04-16T14:11:47.704Z,22.90
2023-04-16T14:14:15.536Z,26.00
2023-04-16T14:16:43.482Z,24.42
2023-04-16T14:19:11.687Z,26.60
2023-04-16T14:21:39.974Z,25.23
2023-04-16T14:24:09.268Z,25.20
2023-04-16T14:26:38.386Z,37.35
2023-04-16T14:29:06.659Z,78.25
2023-04-16T14:31:34.493Z,79.70
2023-04-16T14:34:02.641Z,85.78
2023-04-16T14:36:31.234Z,89.97
2023-04-16T14:38:59.001Z,90.95
2023-04-16T14:41:27.147Z,152.75
2023-04-16T14:43:56.197Z,132.15
2023-04-16T14:46:25.082Z,164.80
2023-04-16T14:48:53.027Z,52.53
2023-04-16T14:51:20.749Z,52.63
2023-04-16T14:53:48.587Z,34.78
2023-04-16T14:56:16.367Z,30.05
2023-04-16T14:58:44.095Z,29.40
2023-04-16T15:01:14.781Z,27.55
2023-04-16T15:03:43.177Z,30.13
2023-04-16T15:06:11.586Z,23.05
2023-04-16T15:08:39.734Z,26.08
2023-04-16T15:11:07.653Z,24.85
2023-04-16T15:13:35.550Z,24.55
2023-04-16T15:16:04.478Z,26.17
2023-04-16T15:18:33.767Z,27.30
2023-04-16T15:21:01.505Z,27.15
2023-04-16T15:23:29.262Z,27.77
2023-04-16T15:25:57.225Z,23.45
2023-04-16T15:28:24.975Z,25.52
2023-04-16T15:30:53.108Z,24.90
2023-04-16T15:33:22.316Z,22.27
2023-04-16T15:35:52.411Z,23.60
2023-04-16T15:38:21.221Z,23.00
2023-04-16T15:40:49.367Z,25.30
2023-04-16T15:45:45.382Z,25.23
2023-04-16T15:48:13.181Z,24.35
2023-04-16T15:50:41.043Z,22.70
2023-04-16T15:53:10.206Z,26.08
2023-04-16T15:55:38.264Z,22.45
2023-04-16T15:58:06.037Z,21.55
2023-04-16T16:00:34.086Z,24.20
2023-04-16T16:03:01.901Z,22.27
2023-04-16T16:05:29.974Z,20.50
2023-04-16T16:07:58.433Z,20.50
2023-04-16T16:10:27.771Z,19.33
2023-04-16T16:12:57.207Z,22.60
2023-04-16T16:15:24.930Z,20.92
2023-04-16T16:17:53.583Z,21.92
2023-04-16T16:20:22.638Z,19.75
2023-04-16T16:22:53.004Z,22.42
2023-04-16T16:25:21.432Z,20.40
2023-04-16T16:27:50.898Z,19.85
2023-04-16T16:30:18.638Z,20.70
2023-04-16T16:32:46.657Z,21.98
2023-04-16T16:35:14.733Z,19.55
2023-04-16T16:37:42.451Z,21.85
2023-04-16T16:40:11.308Z,17.83
2023-04-16T16:42:39.191Z,21.80
2023-04-16T16:45:10.093Z,20.15
2023-04-16T16:47:37.817Z,21.92
2023-04-16T16:50:06.744Z,20.55
2023-04-16T16:52:34.661Z,20.48
2023-04-16T16:55:02.363Z,24.77
2023-04-16T16:57:30.064Z,22.65
2023-04-16T16:59:57.870Z,33.22
2023-04-16T17:02:27.166Z,31.50
2023-04-16T17:04:54.982Z,28.83
2023-04-16T17:07:22.738Z,24.25
2023-04-16T17:09:50.452Z,29.50
2023-04-16T17:12:18.093Z,26.08
2023-04-16T17:14:45.944Z,25.67
2023-04-16T17:17:13.638Z,26.30
2023-04-16T17:19:42.719Z,23.65
2023-04-16T17:22:10.653Z,30.85
2023-04-16T17:24:38.525Z,26.27
2023-04-16T17:27:06.369Z,25.85
2023-04-16T17:29:34.076Z,29.48
2023-04-16T17:32:02.087Z,29.92
2023-04-16T17:34:30.109Z,25.20
2023-04-16T17:36:59.156Z,29.67
2023-04-16T17:39:26.893Z,26.60
2023-04-16T17:41:58.388Z,30.88
2023-04-16T17:44:28.043Z,32.53
2023-04-16T17:46:55.942Z,27.65
2023-04-16T17:49:23.873Z,30.27
2023-04-16T17:51:51.692Z,26.60
2023-04-16T17:54:20.971Z,27.23
2023-04-16T17:56:48.726Z,24.80
2023-04-16T17:59:16.500Z,30.83
2023-04-16T18:01:44.464Z,26.33
2023-04-16T18:04:12.622Z,31.05
2023-04-16T18:06:40.930Z,26.58
2023-04-16T18:09:08.895Z,28.73
2023-04-16T18:11:38.182Z,27.27
2023-04-16T18:14:06.049Z,29.05
2023-04-16T18:16:33.863Z,30.17
2023-04-16T18:19:01.695Z,25.52
2023-04-16T18:21:30.504Z,26.27
2023-04-16T18:23:58.876Z,24.73
2023-04-16T18:26:29.699Z,25.33
2023-04-16T18:29:00.319Z,25.73
2023-04-16T18:31:28.294Z,21.58
2023-04-16T18:33:57.906Z,24.08
2023-04-16T18:36:26.746Z,21.30
2023-04-16T18:39:00.814Z,26.52
2023-04-16T18:41:30.006Z,24.65
2023-04-16T18:43:59.154Z,21.88
2023-04-16T18:46:27.539Z,23.95
2023-04-16T18:48:55.612Z,24.38
2023-04-16T18:51:23.392Z,21.83
2023-04-16T18:53:51.340Z,25.63
2023-04-16T18:56:19.182Z,23.65
2023-04-16T18:58:47.874Z,24.63
2023-04-16T19:01:17.906Z,23.10
2023-04-16T19:03:46.052Z,27.02
2023-04-16T19:06:14.053Z,23.83
2023-04-16T19:08:41.790Z,28.02
2023-04-16T19:11:09.609Z,26.33
2023-04-16T19:13:38.705Z,27.70
2023-04-16T19:16:11.300Z,32.58
2023-04-16T19:18:40.867Z,29.05
2023-04-16T19:21:10.832Z,25.38
2023-04-16T19:23:38.757Z,28.30
2023-04-16T19:26:06.692Z,25.98
2023-04-16T19:28:34.740Z,28.77
2023-04-16T19:31:02.625Z,28.55
2023-04-16T19:33:31.265Z,25.42
2023-04-16T19:36:00.450Z,26.48
2023-04-16T19:38:28.288Z,24.42
2023-04-16T19:40:56.297Z,20.63
2023-04-16T19:43:24.102Z,21.50
2023-04-16T19:45:53.534Z,21.27
2023-04-16T19:48:21.655Z,20.35
2023-04-16T19:50:49.753Z,24.17
2023-04-16T19:53:18.814Z,23.70
2023-04-16T19:55:46.784Z,21.23
2023-04-16T19:58:14.687Z,24.88
2023-04-16T20:00:43.131Z,21.80
2023-04-16T20:03:11.223Z,19.90
2023-04-16T20:05:39.057Z,18.95
2023-04-16T20:08:07.389Z,21.35
2023-04-16T20:10:36.516Z,18.25
2023-04-16T20:13:04.926Z,20.60
2023-04-16T20:15:32.593Z,21.85
2023-04-16T20:18:00.409Z,20.30
2023-04-16T20:20:28.187Z,20.27
2023-04-16T20:22:56.028Z,21.35
2023-04-16T20:25:26.257Z,20.83
2023-04-16T20:27:55.453Z,24.35
2023-04-16T20:30:28.804Z,23.58
2023-04-16T20:32:56.806Z,23.90
2023-04-16T20:35:24.584Z,23.63
2023-04-16T20:37:52.417Z,20.00
2023-04-16T20:40:21.187Z,21.92
2023-04-16T20:42:52.011Z,24.90
2023-04-16T20:45:21.930Z,19.77
2023-04-16T20:47:49.640Z,22.35
2023-04-16T20:50:17.510Z,22.25
2023-04-16T20:52:45.347Z,26.90
2023-04-16T20:55:13.070Z,25.15
2023-04-16T20:57:40.815Z,23.05
2023-04-16T21:00:12.027Z,21.00
2023-04-16T21:02:41.471Z,22.48
2023-04-16T21:05:13.687Z,21.00
2023-04-16T21:07:42.245Z,23.50
2023-04-16T21:10:11.231Z,21.33
2023-04-16T21:12:39.048Z,23.33
2023-04-16T21:15:07.595Z,23.30
2023-04-16T21:17:35.342Z,21.67
2023-04-16T21:20:06.938Z,23.15
2023-04-16T21:22:34.651Z,19.55
2023-04-16T21:25:02.895Z,21.20
2023-04-16T21:27:30.528Z,20.75
2023-04-16T21:29:58.262Z,22.23
2023-04-16T21:32:26.028Z,20.45
2023-04-16T21:34:53.874Z,23.23
2023-04-16T21:37:22.922Z,20.13
2023-04-16T21:39:50.694Z,23.10
2023-04-16T21:42:18.438Z,22.60
2023-04-16T21:44:46.431Z,22.08
2023-04-16T21:47:14.581Z,26.15
2023-04-16T21:49:42.786Z,22.25
2023-04-16T21:52:14.260Z,21.58
2023-04-16T21:54:43.305Z,22.20
2023-04-16T21:57:11.706Z,20.42
2023-04-16T21:59:39.965Z,24.20
2023-04-16T22:02:07.835Z,23.55
2023-04-16T22:04:38.486Z,22.88
2023-04-16T22:07:08.788Z,24.75
2023-04-16T22:09:36.668Z,24.25
2023-04-16T22:12:10.201Z,26.65
2023-04-16T22:14:44.084Z,22.52
2023-04-16T22:17:17.277Z,23.02
2023-04-16T22:19:45.628Z,23.15
2023-04-16T22:22:13.380Z,26.95
2023-04-16T22:24:41.176Z,22.50
2023-04-16T22:27:10.268Z,24.48
2023-04-16T22:29:38.008Z,23.20
2023-04-16T22:32:06.359Z,21.60
2023-04-16T22:34:34.108Z,22.70
2023-04-16T22:37:03.046Z,25.13
2023-04-16T22:39:30.886Z,22.95
2023-04-16T22:41:58.503Z,21.15
2023-04-16T22:44:27.630Z,23.00
2023-04-16T22:46:55.310Z,24.52
2023-04-16T22:49:23.025Z,21.38
2023-04-16T22:51:50.885Z,22.92
2023-04-16T22:54:18.538Z,21.20
2023-04-16T22:56:46.887Z,20.88
2023-04-16T22:59:14.645Z,23.38
2023-04-16T23:01:44.087Z,21.92
2023-04-16T23:04:12.015Z,25.45
2023-04-16T23:06:40.630Z,23.77
2023-04-16T23:09:08.524Z,25.67
2023-04-16T23:11:36.513Z,25.30
2023-04-16T23:14:05.093Z,22.98
2023-04-16T23:16:32.790Z,25.20
2023-04-16T23:19:01.881Z,25.35
2023-04-16T23:21:29.604Z,23.17
2023-04-16T23:23:59.104Z,26.27
2023-04-16T23:26:26.851Z,26.95
2023-04-16T23:28:54.490Z,25.48
2023-04-16T23:31:22.194Z,23.83
2023-04-16T23:33:49.881Z,23.08
2023-04-16T23:36:18.865Z,23.50
2023-04-16T23:38:46.594Z,25.48
2023-04-16T23:41:14.249Z,24.65
2023-04-16T23:43:41.936Z,25.58
2023-04-16T23:46:09.663Z,24.20
2023-04-16T23:48:37.306Z,25.17
2023-04-16T23:51:05.866Z,24.92
2023-04-16T23:53:36.299Z,25.58
2023-04-16T23:56:04.864Z,23.65
2023-04-16T23:58:32.589Z,27.05
